Campina do Monte Alegre, Brazil
Current Conditions -  °F | °C
As of 3:00 PM on Thursday 30 Oct 2014 (Local Time) from SBKP Reporting Station
Scattered Clouds Scattered Clouds  
Wind Chill: 93°   Ceiling: Unl
Heat Index: 93°   Visibility: 6mi
Dew Point: 46°   Wind: 10mph
Humidity: 20%   Direction: 310°NW
Pressure: 29.83"   Gusts: NA
Location:  23.58°S, 48.47°W
Report Text: SBKP 301700Z 31009KT 280V030 9999 SCT045 34/08 Q1010
Loading
Personal Weather Stations






























Interactive Weather Map
Tropical Storm Tracking
New forecast layout! Learn more

10-Day Weather Forecast

Advertisements
Track Severe Weather on mobile